sensor_id;sensor_type;location;lat;lon;timestamp;temperature;humidity
53520;DHT22;39397;53.204;5.778;2023-04-04T00:00:14;4.70;99.90
53520;DHT22;39397;53.204;5.778;2023-04-04T00:02:40;2.70;99.90
53520;DHT22;39397;53.204;5.778;2023-04-04T00:05:06;2.50;99.90
53520;DHT22;39397;53.204;5.778;2023-04-04T00:07:32;2.50;99.90
53520;DHT22;39397;53.204;5.778;2023-04-04T00:09:58;3.50;99.90
53520;DHT22;39397;53.204;5.778;2023-04-04T00:12:24;3.70;99.90
53520;DHT22;39397;53.204;5.778;2023-04-04T00:14:50;2.40;99.90
53520;DHT22;39397;53.204;5.778;2023-04-04T00:17:16;2.40;99.90
53520;DHT22;39397;53.204;5.778;2023-04-04T00:19:42;3.40;99.90
53520;DHT22;39397;53.204;5.778;2023-04-04T00:22:08;4.20;99.90
53520;DHT22;39397;53.204;5.778;2023-04-04T00:24:34;2.40;99.90
53520;DHT22;39397;53.204;5.778;2023-04-04T00:27:00;3.60;99.90
53520;DHT22;39397;53.204;5.778;2023-04-04T00:29:26;4.20;99.90
53520;DHT22;39397;53.204;5.778;2023-04-04T00:31:52;3.30;99.90
53520;DHT22;39397;53.204;5.778;2023-04-04T00:34:18;4.10;99.90
53520;DHT22;39397;53.204;5.778;2023-04-04T00:36:43;3.50;99.90
53520;DHT22;39397;53.204;5.778;2023-04-04T00:39:09;2.80;99.90
53520;DHT22;39397;53.204;5.778;2023-04-04T00:41:35;3.20;99.90
53520;DHT22;39397;53.204;5.778;2023-04-04T00:44:02;2.20;99.90
53520;DHT22;39397;53.204;5.778;2023-04-04T00:46:27;2.40;99.90
53520;DHT22;39397;53.204;5.778;2023-04-04T00:48:54;3.90;99.90
53520;DHT22;39397;53.204;5.778;2023-04-04T00:51:20;2.20;99.90
53520;DHT22;39397;53.204;5.778;2023-04-04T00:53:46;3.80;99.90
53520;DHT22;39397;53.204;5.778;2023-04-04T00:56:13;2.00;99.90
53520;DHT22;39397;53.204;5.778;2023-04-04T00:58:40;2.10;99.90
53520;DHT22;39397;53.204;5.778;2023-04-04T01:01:07;2.90;99.90
53520;DHT22;39397;53.204;5.778;2023-04-04T01:03:35;3.00;99.90
53520;DHT22;39397;53.204;5.778;2023-04-04T01:06:02;2.10;99.90
53520;DHT22;39397;53.204;5.778;2023-04-04T01:08:29;2.00;99.90
53520;DHT22;39397;53.204;5.778;2023-04-04T01:10:54;2.40;99.90
53520;DHT22;39397;53.204;5.778;2023-04-04T01:13:21;2.00;99.90
53520;DHT22;39397;53.204;5.778;2023-04-04T01:15:47;2.10;99.90
53520;DHT22;39397;53.204;5.778;2023-04-04T01:18:16;3.60;99.90
53520;DHT22;39397;53.204;5.778;2023-04-04T01:23:23;3.60;99.90
53520;DHT22;39397;53.204;5.778;2023-04-04T01:26:01;3.70;99.90
53520;DHT22;39397;53.204;5.778;2023-04-04T01:28:27;2.80;99.90
53520;DHT22;39397;53.204;5.778;2023-04-04T01:30:53;3.00;99.90
53520;DHT22;39397;53.204;5.778;2023-04-04T01:33:45;1.70;99.90
53520;DHT22;39397;53.204;5.778;2023-04-04T01:36:24;3.30;99.90
53520;DHT22;39397;53.204;5.778;2023-04-04T01:41:38;1.60;99.90
53520;DHT22;39397;53.204;5.778;2023-04-04T01:44:09;3.10;99.90
53520;DHT22;39397;53.204;5.778;2023-04-04T01:46:35;1.60;99.90
53520;DHT22;39397;53.204;5.778;2023-04-04T01:49:01;2.90;99.90
53520;DHT22;39397;53.204;5.778;2023-04-04T01:51:28;2.50;99.90
53520;DHT22;39397;53.204;5.778;2023-04-04T01:53:54;2.30;99.90
53520;DHT22;39397;53.204;5.778;2023-04-04T01:56:20;2.10;99.90
53520;DHT22;39397;53.204;5.778;2023-04-04T01:58:46;1.90;99.90
53520;DHT22;39397;53.204;5.778;2023-04-04T02:01:11;2.70;99.90
53520;DHT22;39397;53.204;5.778;2023-04-04T02:03:37;1.50;99.90
53520;DHT22;39397;53.204;5.778;2023-04-04T02:06:03;2.20;99.90
53520;DHT22;39397;53.204;5.778;2023-04-04T02:08:29;1.50;99.90
53520;DHT22;39397;53.204;5.778;2023-04-04T02:10:57;1.50;99.90
53520;DHT22;39397;53.204;5.778;2023-04-04T02:13:23;1.80;99.90
53520;DHT22;39397;53.204;5.778;2023-04-04T02:15:50;1.50;99.90
53520;DHT22;39397;53.204;5.778;2023-04-04T02:18:16;1.70;99.90
53520;DHT22;39397;53.204;5.778;2023-04-04T02:20:41;1.40;99.90
53520;DHT22;39397;53.204;5.778;2023-04-04T02:23:07;2.90;99.90
53520;DHT22;39397;53.204;5.778;2023-04-04T02:25:33;2.50;99.90
53520;DHT22;39397;53.204;5.778;2023-04-04T02:27:59;1.60;99.90
53520;DHT22;39397;53.204;5.778;2023-04-04T02:30:25;1.60;99.90
53520;DHT22;39397;53.204;5.778;2023-04-04T02:32:51;2.00;99.90
53520;DHT22;39397;53.204;5.778;2023-04-04T02:35:17;1.70;99.90
53520;DHT22;39397;53.204;5.778;2023-04-04T02:37:46;1.70;99.90
53520;DHT22;39397;53.204;5.778;2023-04-04T02:40:12;1.70;99.90
53520;DHT22;39397;53.204;5.778;2023-04-04T02:42:44;1.60;99.90
53520;DHT22;39397;53.204;5.778;2023-04-04T02:45:10;1.70;99.90
53520;DHT22;39397;53.204;5.778;2023-04-04T02:47:36;1.70;99.90
53520;DHT22;39397;53.204;5.778;2023-04-04T02:50:02;3.00;99.90
53520;DHT22;39397;53.204;5.778;2023-04-04T02:52:28;1.70;99.90
53520;DHT22;39397;53.204;5.778;2023-04-04T02:54:54;1.70;99.90
53520;DHT22;39397;53.204;5.778;2023-04-04T02:57:20;2.00;99.90
53520;DHT22;39397;53.204;5.778;2023-04-04T02:59:45;1.60;99.90
53520;DHT22;39397;53.204;5.778;2023-04-04T03:02:11;2.00;99.90
53520;DHT22;39397;53.204;5.778;2023-04-04T03:04:37;1.60;99.90
53520;DHT22;39397;53.204;5.778;2023-04-04T03:07:03;3.20;99.90
53520;DHT22;39397;53.204;5.778;2023-04-04T03:09:29;1.60;99.90
53520;DHT22;39397;53.204;5.778;2023-04-04T03:11:55;3.30;99.90
53520;DHT22;39397;53.204;5.778;2023-04-04T03:14:20;3.10;99.90
53520;DHT22;39397;53.204;5.778;2023-04-04T03:16:47;1.50;99.90
53520;DHT22;39397;53.204;5.778;2023-04-04T03:19:16;1.50;99.90
53520;DHT22;39397;53.204;5.778;2023-04-04T03:21:42;1.50;99.90
53520;DHT22;39397;53.204;5.778;2023-04-04T03:24:08;1.50;99.90
53520;DHT22;39397;53.204;5.778;2023-04-04T03:26:33;1.40;99.90
53520;DHT22;39397;53.204;5.778;2023-04-04T03:28:59;1.80;99.90
53520;DHT22;39397;53.204;5.778;2023-04-04T03:31:25;3.10;99.90
53520;DHT22;39397;53.204;5.778;2023-04-04T03:33:50;3.20;99.90
53520;DHT22;39397;53.204;5.778;2023-04-04T03:36:16;2.00;99.90
53520;DHT22;39397;53.204;5.778;2023-04-04T03:38:42;1.80;99.90
53520;DHT22;39397;53.204;5.778;2023-04-04T03:41:08;2.80;99.90
53520;DHT22;39397;53.204;5.778;2023-04-04T03:43:34;2.60;99.90
53520;DHT22;39397;53.204;5.778;2023-04-04T03:46:03;1.90;99.90
53520;DHT22;39397;53.204;5.778;2023-04-04T03:48:30;1.30;99.90
53520;DHT22;39397;53.204;5.778;2023-04-04T03:50:59;1.70;99.90
53520;DHT22;39397;53.204;5.778;2023-04-04T03:53:25;3.10;99.90
53520;DHT22;39397;53.204;5.778;2023-04-04T03:55:54;1.30;99.90
53520;DHT22;39397;53.204;5.778;2023-04-04T03:58:20;1.40;99.90
53520;DHT22;39397;53.204;5.778;2023-04-04T04:00:46;1.40;99.90
53520;DHT22;39397;53.204;5.778;2023-04-04T04:03:11;1.30;99.90
53520;DHT22;39397;53.204;5.778;2023-04-04T04:05:37;1.40;99.90
53520;DHT22;39397;53.204;5.778;2023-04-04T04:08:03;1.80;99.90
53520;DHT22;39397;53.204;5.778;2023-04-04T04:10:29;1.20;99.90
53520;DHT22;39397;53.204;5.778;2023-04-04T04:12:54;1.40;99.90
53520;DHT22;39397;53.204;5.778;2023-04-04T04:15:21;2.50;99.90
53520;DHT22;39397;53.204;5.778;2023-04-04T04:17:47;1.20;99.90
53520;DHT22;39397;53.204;5.778;2023-04-04T04:20:13;2.10;99.90
53520;DHT22;39397;53.204;5.778;2023-04-04T04:22:44;1.20;99.90
53520;DHT22;39397;53.204;5.778;2023-04-04T04:25:11;2.20;99.90
53520;DHT22;39397;53.204;5.778;2023-04-04T04:27:36;1.10;99.90
53520;DHT22;39397;53.204;5.778;2023-04-04T04:30:02;1.80;99.90
53520;DHT22;39397;53.204;5.778;2023-04-04T04:32:29;1.20;99.90
53520;DHT22;39397;53.204;5.778;2023-04-04T04:34:54;1.20;99.90
53520;DHT22;39397;53.204;5.778;2023-04-04T04:37:20;1.20;99.90
53520;DHT22;39397;53.204;5.778;2023-04-04T04:39:46;1.20;99.90
53520;DHT22;39397;53.204;5.778;2023-04-04T04:42:12;1.70;99.90
53520;DHT22;39397;53.204;5.778;2023-04-04T04:44:37;1.30;99.90
53520;DHT22;39397;53.204;5.778;2023-04-04T04:47:03;2.20;99.90
53520;DHT22;39397;53.204;5.778;2023-04-04T04:49:29;1.20;99.90
53520;DHT22;39397;53.204;5.778;2023-04-04T04:51:54;1.20;99.90
53520;DHT22;39397;53.204;5.778;2023-04-04T04:54:20;1.40;99.90
53520;DHT22;39397;53.204;5.778;2023-04-04T04:56:46;2.70;99.90
53520;DHT22;39397;53.204;5.778;2023-04-04T04:59:12;1.30;99.90
53520;DHT22;39397;53.204;5.778;2023-04-04T05:01:39;2.60;99.90
53520;DHT22;39397;53.204;5.778;2023-04-04T05:04:05;2.20;99.90
53520;DHT22;39397;53.204;5.778;2023-04-04T05:06:30;1.30;99.90
53520;DHT22;39397;53.204;5.778;2023-04-04T05:08:56;2.80;99.90
53520;DHT22;39397;53.204;5.778;2023-04-04T05:11:22;2.90;99.90
53520;DHT22;39397;53.204;5.778;2023-04-04T05:13:47;1.10;99.90
53520;DHT22;39397;53.204;5.778;2023-04-04T05:16:13;1.20;99.90
53520;DHT22;39397;53.204;5.778;2023-04-04T05:18:39;2.40;99.90
53520;DHT22;39397;53.204;5.778;2023-04-04T05:21:04;1.90;99.90
53520;DHT22;39397;53.204;5.778;2023-04-04T05:23:30;1.10;99.90
53520;DHT22;39397;53.204;5.778;2023-04-04T05:25:56;1.20;99.90
53520;DHT22;39397;53.204;5.778;2023-04-04T05:28:21;3.20;99.90
53520;DHT22;39397;53.204;5.778;2023-04-04T05:30:48;1.20;99.90
53520;DHT22;39397;53.204;5.778;2023-04-04T05:33:13;1.30;99.90
53520;DHT22;39397;53.204;5.778;2023-04-04T05:35:39;1.40;99.90
53520;DHT22;39397;53.204;5.778;2023-04-04T05:38:06;2.40;99.90
53520;DHT22;39397;53.204;5.778;2023-04-04T05:40:32;3.00;99.90
53520;DHT22;39397;53.204;5.778;2023-04-04T05:42:59;1.30;99.90
53520;DHT22;39397;53.204;5.778;2023-04-04T05:45:25;1.70;99.90
53520;DHT22;39397;53.204;5.778;2023-04-04T05:47:51;1.70;99.90
53520;DHT22;39397;53.204;5.778;2023-04-04T05:50:17;1.90;99.90
53520;DHT22;39397;53.204;5.778;2023-04-04T05:52:42;1.50;99.90
53520;DHT22;39397;53.204;5.778;2023-04-04T05:55:08;2.70;99.90
53520;DHT22;39397;53.204;5.778;2023-04-04T05:57:34;1.50;99.90
53520;DHT22;39397;53.204;5.778;2023-04-04T06:00:00;2.60;99.90
53520;DHT22;39397;53.204;5.778;2023-04-04T06:02:26;1.60;99.90
53520;DHT22;39397;53.204;5.778;2023-04-04T06:04:53;1.60;99.90
53520;DHT22;39397;53.204;5.778;2023-04-04T06:07:19;1.70;99.90
53520;DHT22;39397;53.204;5.778;2023-04-04T06:09:45;2.80;99.90
53520;DHT22;39397;53.204;5.778;2023-04-04T06:12:11;1.80;99.90
53520;DHT22;39397;53.204;5.778;2023-04-04T06:14:36;2.90;99.90
53520;DHT22;39397;53.204;5.778;2023-04-04T06:17:03;3.40;99.90
53520;DHT22;39397;53.204;5.778;2023-04-04T06:19:29;3.30;99.90
53520;DHT22;39397;53.204;5.778;2023-04-04T06:21:54;2.20;99.90
53520;DHT22;39397;53.204;5.778;2023-04-04T06:24:20;2.10;99.90
53520;DHT22;39397;53.204;5.778;2023-04-04T06:26:46;2.10;99.90
53520;DHT22;39397;53.204;5.778;2023-04-04T06:29:16;3.10;99.90
53520;DHT22;39397;53.204;5.778;2023-04-04T06:31:42;2.50;99.90
53520;DHT22;39397;53.204;5.778;2023-04-04T06:34:08;3.60;99.90
53520;DHT22;39397;53.204;5.778;2023-04-04T06:36:34;4.20;99.90
53520;DHT22;39397;53.204;5.778;2023-04-04T06:39:00;2.60;99.90
53520;DHT22;39397;53.204;5.778;2023-04-04T06:41:26;3.60;99.90
53520;DHT22;39397;53.204;5.778;2023-04-04T06:43:52;2.70;99.90
53520;DHT22;39397;53.204;5.778;2023-04-04T06:46:17;4.50;99.90
53520;DHT22;39397;53.204;5.778;2023-04-04T06:48:43;4.70;99.90
53520;DHT22;39397;53.204;5.778;2023-04-04T06:51:09;4.70;99.90
53520;DHT22;39397;53.204;5.778;2023-04-04T06:53:36;4.80;99.90
53520;DHT22;39397;53.204;5.778;2023-04-04T06:56:02;4.80;99.90
53520;DHT22;39397;53.204;5.778;2023-04-04T06:58:32;3.20;99.90
53520;DHT22;39397;53.204;5.778;2023-04-04T07:00:57;3.10;99.90
53520;DHT22;39397;53.204;5.778;2023-04-04T07:03:24;5.30;99.90
53520;DHT22;39397;53.204;5.778;2023-04-04T07:05:51;3.70;99.90
53520;DHT22;39397;53.204;5.778;2023-04-04T07:08:16;3.80;99.90
53520;DHT22;39397;53.204;5.778;2023-04-04T07:10:42;5.10;99.90
53520;DHT22;39397;53.204;5.778;2023-04-04T07:13:08;3.70;99.90
53520;DHT22;39397;53.204;5.778;2023-04-04T07:15:34;3.70;99.90
53520;DHT22;39397;53.204;5.778;2023-04-04T07:18:00;3.70;99.90
53520;DHT22;39397;53.204;5.778;2023-04-04T07:20:26;5.70;99.90
53520;DHT22;39397;53.204;5.778;2023-04-04T07:22:53;4.00;99.90
53520;DHT22;39397;53.204;5.778;2023-04-04T07:25:19;4.00;99.90
53520;DHT22;39397;53.204;5.778;2023-04-04T07:27:45;5.60;99.90
53520;DHT22;39397;53.204;5.778;2023-04-04T07:30:11;4.40;99.90
53520;DHT22;39397;53.204;5.778;2023-04-04T07:32:37;4.50;99.90
53520;DHT22;39397;53.204;5.778;2023-04-04T07:35:04;4.60;99.90
53520;DHT22;39397;53.204;5.778;2023-04-04T07:37:31;4.70;99.90
53520;DHT22;39397;53.204;5.778;2023-04-04T07:39:58;4.80;99.90
53520;DHT22;39397;53.204;5.778;2023-04-04T07:42:23;6.70;99.90
53520;DHT22;39397;53.204;5.778;2023-04-04T07:44:50;5.10;99.90
53520;DHT22;39397;53.204;5.778;2023-04-04T07:47:16;6.50;99.90
53520;DHT22;39397;53.204;5.778;2023-04-04T07:49:42;5.40;99.90
53520;DHT22;39397;53.204;5.778;2023-04-04T07:52:08;5.50;99.90
53520;DHT22;39397;53.204;5.778;2023-04-04T07:54:34;5.60;99.90
53520;DHT22;39397;53.204;5.778;2023-04-04T07:57:00;5.70;99.90
53520;DHT22;39397;53.204;5.778;2023-04-04T07:59:33;5.90;99.90
53520;DHT22;39397;53.204;5.778;2023-04-04T08:01:58;5.70;99.90
53520;DHT22;39397;53.204;5.778;2023-04-04T08:04:24;6.70;99.90
53520;DHT22;39397;53.204;5.778;2023-04-04T08:06:50;5.90;99.90
53520;DHT22;39397;53.204;5.778;2023-04-04T08:09:16;6.40;99.90
53520;DHT22;39397;53.204;5.778;2023-04-04T08:11:41;6.00;99.90
53520;DHT22;39397;53.204;5.778;2023-04-04T08:14:08;6.00;99.90
53520;DHT22;39397;53.204;5.778;2023-04-04T08:16:37;6.00;99.90
53520;DHT22;39397;53.204;5.778;2023-04-04T08:19:03;6.20;99.90
53520;DHT22;39397;53.204;5.778;2023-04-04T08:21:29;6.20;99.90
53520;DHT22;39397;53.204;5.778;2023-04-04T08:23:55;7.30;99.90
53520;DHT22;39397;53.204;5.778;2023-04-04T08:26:20;7.50;99.90
53520;DHT22;39397;53.204;5.778;2023-04-04T08:28:47;6.30;99.90
53520;DHT22;39397;53.204;5.778;2023-04-04T08:31:13;6.40;99.90
53520;DHT22;39397;53.204;5.778;2023-04-04T08:33:38;6.50;99.90
53520;DHT22;39397;53.204;5.778;2023-04-04T08:36:04;7.70;99.90
53520;DHT22;39397;53.204;5.778;2023-04-04T08:38:30;6.60;99.90
53520;DHT22;39397;53.204;5.778;2023-04-04T08:40:56;7.80;99.90
53520;DHT22;39397;53.204;5.778;2023-04-04T08:43:23;6.90;99.90
53520;DHT22;39397;53.204;5.778;2023-04-04T08:45:53;7.00;99.90
53520;DHT22;39397;53.204;5.778;2023-04-04T08:48:19;6.90;99.90
53520;DHT22;39397;53.204;5.778;2023-04-04T08:50:46;6.90;99.90
53520;DHT22;39397;53.204;5.778;2023-04-04T08:53:13;7.20;99.90
53520;DHT22;39397;53.204;5.778;2023-04-04T08:55:39;7.10;99.90
53520;DHT22;39397;53.204;5.778;2023-04-04T08:58:06;7.20;99.90
53520;DHT22;39397;53.204;5.778;2023-04-04T09:00:31;7.30;99.90
53520;DHT22;39397;53.204;5.778;2023-04-04T09:05:38;7.30;99.90
53520;DHT22;39397;53.204;5.778;2023-04-04T09:08:04;7.30;99.90
53520;DHT22;39397;53.204;5.778;2023-04-04T09:10:31;7.50;99.90
53520;DHT22;39397;53.204;5.778;2023-04-04T09:12:57;8.70;99.90
53520;DHT22;39397;53.204;5.778;2023-04-04T09:15:24;8.70;99.90
53520;DHT22;39397;53.204;5.778;2023-04-04T09:17:50;7.70;99.90
53520;DHT22;39397;53.204;5.778;2023-04-04T09:20:37;7.70;99.90
53520;DHT22;39397;53.204;5.778;2023-04-04T09:23:06;7.70;99.90
53520;DHT22;39397;53.204;5.778;2023-04-04T09:25:35;8.10;99.90
53520;DHT22;39397;53.204;5.778;2023-04-04T09:28:05;7.70;99.90
53520;DHT22;39397;53.204;5.778;2023-04-04T09:30:31;7.80;99.90
53520;DHT22;39397;53.204;5.778;2023-04-04T09:33:03;8.20;99.90
53520;DHT22;39397;53.204;5.778;2023-04-04T09:35:38;9.20;99.90
53520;DHT22;39397;53.204;5.778;2023-04-04T09:38:07;7.90;99.90
53520;DHT22;39397;53.204;5.778;2023-04-04T09:40:35;8.10;99.90
53520;DHT22;39397;53.204;5.778;2023-04-04T09:43:02;8.20;99.90
53520;DHT22;39397;53.204;5.778;2023-04-04T09:45:38;8.40;99.90
53520;DHT22;39397;53.204;5.778;2023-04-04T09:48:07;8.50;99.80
53520;DHT22;39397;53.204;5.778;2023-04-04T09:50:35;8.70;99.30
53520;DHT22;39397;53.204;5.778;2023-04-04T09:53:01;9.40;99.50
53520;DHT22;39397;53.204;5.778;2023-04-04T09:55:36;8.60;99.30
53520;DHT22;39397;53.204;5.778;2023-04-04T09:58:11;8.80;99.20
53520;DHT22;39397;53.204;5.778;2023-04-04T10:00:45;8.70;98.90
53520;DHT22;39397;53.204;5.778;2023-04-04T10:03:16;8.80;98.40
53520;DHT22;39397;53.204;5.778;2023-04-04T10:05:46;8.80;98.20
53520;DHT22;39397;53.204;5.778;2023-04-04T10:08:20;8.90;98.10
53520;DHT22;39397;53.204;5.778;2023-04-04T10:10:47;8.80;97.90
53520;DHT22;39397;53.204;5.778;2023-04-04T10:13:13;8.60;98.90
53520;DHT22;39397;53.204;5.778;2023-04-04T10:15:43;8.60;98.50
53520;DHT22;39397;53.204;5.778;2023-04-04T10:18:09;8.60;98.00
53520;DHT22;39397;53.204;5.778;2023-04-04T10:20:35;8.60;97.50
53520;DHT22;39397;53.204;5.778;2023-04-04T10:23:01;8.70;97.70
53520;DHT22;39397;53.204;5.778;2023-04-04T10:25:32;8.70;98.00
53520;DHT22;39397;53.204;5.778;2023-04-04T10:27:58;9.00;97.00
53520;DHT22;39397;53.204;5.778;2023-04-04T10:30:23;9.00;96.90
53520;DHT22;39397;53.204;5.778;2023-04-04T10:32:56;9.20;96.90
53520;DHT22;39397;53.204;5.778;2023-04-04T10:35:26;9.20;96.70
53520;DHT22;39397;53.204;5.778;2023-04-04T10:37:57;9.40;96.70
53520;DHT22;39397;53.204;5.778;2023-04-04T10:40:27;9.50;96.50
53520;DHT22;39397;53.204;5.778;2023-04-04T10:43:00;9.60;96.30
53520;DHT22;39397;53.204;5.778;2023-04-04T10:45:28;9.70;95.80
53520;DHT22;39397;53.204;5.778;2023-04-04T10:47:55;9.70;95.50
53520;DHT22;39397;53.204;5.778;2023-04-04T10:50:21;9.60;95.00
53520;DHT22;39397;53.204;5.778;2023-04-04T10:52:48;9.60;94.90
53520;DHT22;39397;53.204;5.778;2023-04-04T10:55:14;9.70;94.80
53520;DHT22;39397;53.204;5.778;2023-04-04T10:57:45;9.80;94.80
53520;DHT22;39397;53.204;5.778;2023-04-04T11:00:15;9.80;94.80
53520;DHT22;39397;53.204;5.778;2023-04-04T11:05:39;10.20;94.80
53520;DHT22;39397;53.204;5.778;2023-04-04T11:08:21;10.40;94.40
53520;DHT22;39397;53.204;5.778;2023-04-04T11:10:51;10.50;94.00
53520;DHT22;39397;53.204;5.778;2023-04-04T11:13:19;10.60;93.70
53520;DHT22;39397;53.204;5.778;2023-04-04T11:15:57;10.60;93.80
53520;DHT22;39397;53.204;5.778;2023-04-04T11:21:13;10.80;92.20
53520;DHT22;39397;53.204;5.778;2023-04-04T11:29:00;10.80;92.70
53520;DHT22;39397;53.204;5.778;2023-04-04T11:31:33;10.90;92.90
53520;DHT22;39397;53.204;5.778;2023-04-04T11:34:06;11.00;92.50
53520;DHT22;39397;53.204;5.778;2023-04-04T11:42:14;11.20;92.30
53520;DHT22;39397;53.204;5.778;2023-04-04T11:49:38;11.30;90.60
53520;DHT22;39397;53.204;5.778;2023-04-04T11:52:10;11.30;90.80
53520;DHT22;39397;53.204;5.778;2023-04-04T11:54:38;11.30;90.90
53520;DHT22;39397;53.204;5.778;2023-04-04T11:57:10;11.30;90.70
53520;DHT22;39397;53.204;5.778;2023-04-04T11:59:43;11.40;90.50
53520;DHT22;39397;53.204;5.778;2023-04-04T12:02:11;11.40;88.80
53520;DHT22;39397;53.204;5.778;2023-04-04T12:04:39;11.40;90.10
53520;DHT22;39397;53.204;5.778;2023-04-04T12:07:06;11.50;90.50
53520;DHT22;39397;53.204;5.778;2023-04-04T12:09:33;11.70;90.60
53520;DHT22;39397;53.204;5.778;2023-04-04T12:11:59;11.70;90.50
53520;DHT22;39397;53.204;5.778;2023-04-04T12:14:25;11.80;90.20
53520;DHT22;39397;53.204;5.778;2023-04-04T12:16:55;11.80;90.10
53520;DHT22;39397;53.204;5.778;2023-04-04T12:19:29;11.90;90.20
53520;DHT22;39397;53.204;5.778;2023-04-04T12:21:56;11.90;89.30
53520;DHT22;39397;53.204;5.778;2023-04-04T12:24:22;11.90;88.90
53520;DHT22;39397;53.204;5.778;2023-04-04T12:26:50;11.80;88.40
53520;DHT22;39397;53.204;5.778;2023-04-04T12:29:19;11.70;87.70
53520;DHT22;39397;53.204;5.778;2023-04-04T12:31:45;11.60;88.10
53520;DHT22;39397;53.204;5.778;2023-04-04T12:34:22;11.40;87.80
53520;DHT22;39397;53.204;5.778;2023-04-04T12:36:50;11.20;86.40
53520;DHT22;39397;53.204;5.778;2023-04-04T12:39:18;11.10;88.50
53520;DHT22;39397;53.204;5.778;2023-04-04T12:42:03;11.10;88.80
53520;DHT22;39397;53.204;5.778;2023-04-04T12:44:38;11.30;90.20
53520;DHT22;39397;53.204;5.778;2023-04-04T12:47:08;11.30;88.50
53520;DHT22;39397;53.204;5.778;2023-04-04T12:49:40;11.40;90.00
53520;DHT22;39397;53.204;5.778;2023-04-04T12:52:16;11.20;89.40
53520;DHT22;39397;53.204;5.778;2023-04-04T12:54:43;11.60;90.00
53520;DHT22;39397;53.204;5.778;2023-04-04T12:57:09;11.40;89.60
53520;DHT22;39397;53.204;5.778;2023-04-04T12:59:37;11.40;89.10
53520;DHT22;39397;53.204;5.778;2023-04-04T13:02:09;11.50;88.50
53520;DHT22;39397;53.204;5.778;2023-04-04T13:04:35;11.60;87.70
53520;DHT22;39397;53.204;5.778;2023-04-04T13:07:03;11.60;86.80
53520;DHT22;39397;53.204;5.778;2023-04-04T13:09:29;11.60;86.70
53520;DHT22;39397;53.204;5.778;2023-04-04T13:12:03;11.50;87.00
53520;DHT22;39397;53.204;5.778;2023-04-04T13:15:02;11.40;87.90
53520;DHT22;39397;53.204;5.778;2023-04-04T13:17:48;11.50;86.30
53520;DHT22;39397;53.204;5.778;2023-04-04T13:20:16;11.50;88.30
53520;DHT22;39397;53.204;5.778;2023-04-04T13:22:43;11.40;88.30
53520;DHT22;39397;53.204;5.778;2023-04-04T13:25:09;11.70;88.60
53520;DHT22;39397;53.204;5.778;2023-04-04T13:27:36;11.80;87.90
53520;DHT22;39397;53.204;5.778;2023-04-04T13:30:03;11.90;87.40
53520;DHT22;39397;53.204;5.778;2023-04-04T13:32:29;12.00;86.70
53520;DHT22;39397;53.204;5.778;2023-04-04T13:34:54;12.10;86.60
53520;DHT22;39397;53.204;5.778;2023-04-04T13:37:20;12.00;86.50
53520;DHT22;39397;53.204;5.778;2023-04-04T13:39:46;11.90;86.40
53520;DHT22;39397;53.204;5.778;2023-04-04T13:42:12;11.80;86.30
53520;DHT22;39397;53.204;5.778;2023-04-04T13:44:38;11.80;87.00
53520;DHT22;39397;53.204;5.778;2023-04-04T13:47:04;11.70;87.20
53520;DHT22;39397;53.204;5.778;2023-04-04T13:49:29;11.90;86.10
53520;DHT22;39397;53.204;5.778;2023-04-04T13:51:56;12.20;85.40
53520;DHT22;39397;53.204;5.778;2023-04-04T13:54:22;11.80;86.10
53520;DHT22;39397;53.204;5.778;2023-04-04T13:56:48;11.90;86.00
53520;DHT22;39397;53.204;5.778;2023-04-04T13:59:13;11.90;86.90
53520;DHT22;39397;53.204;5.778;2023-04-04T14:01:39;12.00;85.60
53520;DHT22;39397;53.204;5.778;2023-04-04T14:04:05;12.00;85.50
53520;DHT22;39397;53.204;5.778;2023-04-04T14:06:31;12.00;86.10
53520;DHT22;39397;53.204;5.778;2023-04-04T14:08:57;12.10;87.50
53520;DHT22;39397;53.204;5.778;2023-04-04T14:11:23;12.30;86.80
53520;DHT22;39397;53.204;5.778;2023-04-04T14:13:50;12.30;87.00
53520;DHT22;39397;53.204;5.778;2023-04-04T14:16:19;12.20;87.10
53520;DHT22;39397;53.204;5.778;2023-04-04T14:18:46;12.20;86.70
53520;DHT22;39397;53.204;5.778;2023-04-04T14:21:13;12.30;87.30
53520;DHT22;39397;53.204;5.778;2023-04-04T14:23:39;12.20;87.00
53520;DHT22;39397;53.204;5.778;2023-04-04T14:26:04;12.30;87.20
53520;DHT22;39397;53.204;5.778;2023-04-04T14:28:30;12.30;87.40
53520;DHT22;39397;53.204;5.778;2023-04-04T14:30:57;12.30;86.90
53520;DHT22;39397;53.204;5.778;2023-04-04T14:33:22;12.20;87.60
53520;DHT22;39397;53.204;5.778;2023-04-04T14:35:48;12.30;87.10
53520;DHT22;39397;53.204;5.778;2023-04-04T14:38:15;12.40;87.40
53520;DHT22;39397;53.204;5.778;2023-04-04T14:40:41;14.00;87.80
53520;DHT22;39397;53.204;5.778;2023-04-04T14:43:08;12.40;84.60
53520;DHT22;39397;53.204;5.778;2023-04-04T14:45:34;12.30;86.20
53520;DHT22;39397;53.204;5.778;2023-04-04T14:47:59;12.30;85.70
53520;DHT22;39397;53.204;5.778;2023-04-04T14:50:25;12.20;86.50
53520;DHT22;39397;53.204;5.778;2023-04-04T14:52:51;12.10;86.40
53520;DHT22;39397;53.204;5.778;2023-04-04T14:55:20;12.00;86.20
53520;DHT22;39397;53.204;5.778;2023-04-04T14:57:49;11.90;86.30
53520;DHT22;39397;53.204;5.778;2023-04-04T15:00:15;11.70;86.50
53520;DHT22;39397;53.204;5.778;2023-04-04T15:02:45;11.60;86.30
53520;DHT22;39397;53.204;5.778;2023-04-04T15:05:13;11.50;86.90
53520;DHT22;39397;53.204;5.778;2023-04-04T15:07:39;11.40;87.00
53520;DHT22;39397;53.204;5.778;2023-04-04T15:10:06;11.30;87.10
53520;DHT22;39397;53.204;5.778;2023-04-04T15:12:32;11.20;87.30
53520;DHT22;39397;53.204;5.778;2023-04-04T15:14:58;11.90;86.90
53520;DHT22;39397;53.204;5.778;2023-04-04T15:17:24;11.50;86.60
53520;DHT22;39397;53.204;5.778;2023-04-04T15:19:50;11.40;87.30
53520;DHT22;39397;53.204;5.778;2023-04-04T15:22:16;11.50;87.50
53520;DHT22;39397;53.204;5.778;2023-04-04T15:24:41;11.70;87.60
53520;DHT22;39397;53.204;5.778;2023-04-04T15:27:07;11.70;87.30
53520;DHT22;39397;53.204;5.778;2023-04-04T15:29:33;12.00;87.30
53520;DHT22;39397;53.204;5.778;2023-04-04T15:31:58;12.30;86.70
53520;DHT22;39397;53.204;5.778;2023-04-04T15:34:24;12.40;85.80
53520;DHT22;39397;53.204;5.778;2023-04-04T15:36:50;12.50;85.40
53520;DHT22;39397;53.204;5.778;2023-04-04T15:39:16;12.40;85.60
53520;DHT22;39397;53.204;5.778;2023-04-04T15:41:42;12.40;84.70
53520;DHT22;39397;53.204;5.778;2023-04-04T15:44:08;12.10;84.90
53520;DHT22;39397;53.204;5.778;2023-04-04T15:46:34;12.20;85.20
53520;DHT22;39397;53.204;5.778;2023-04-04T15:49:01;12.30;85.00
53520;DHT22;39397;53.204;5.778;2023-04-04T15:51:26;12.30;83.40
53520;DHT22;39397;53.204;5.778;2023-04-04T15:53:53;12.50;84.40
53520;DHT22;39397;53.204;5.778;2023-04-04T15:56:20;12.60;84.10
53520;DHT22;39397;53.204;5.778;2023-04-04T15:58:46;12.70;84.00
53520;DHT22;39397;53.204;5.778;2023-04-04T16:01:12;13.00;83.40
53520;DHT22;39397;53.204;5.778;2023-04-04T16:03:38;13.10;82.70
53520;DHT22;39397;53.204;5.778;2023-04-04T16:06:04;13.10;82.00
53520;DHT22;39397;53.204;5.778;2023-04-04T16:08:34;13.20;82.00
53520;DHT22;39397;53.204;5.778;2023-04-04T16:11:00;13.50;81.50